sensor_id;sensor_type;location;lat;lon;timestamp;temperature;humidity
18043;DHT22;9146;48.074;11.968;2023-03-19T00:01:50;6.90;99.90
18043;DHT22;9146;48.074;11.968;2023-03-19T00:04:17;6.80;99.90
18043;DHT22;9146;48.074;11.968;2023-03-19T00:06:44;6.70;99.90
18043;DHT22;9146;48.074;11.968;2023-03-19T00:09:11;6.60;99.90
18043;DHT22;9146;48.074;11.968;2023-03-19T00:11:38;6.60;99.90
18043;DHT22;9146;48.074;11.968;2023-03-19T00:14:05;6.50;99.90
18043;DHT22;9146;48.074;11.968;2023-03-19T00:16:32;6.60;99.90
18043;DHT22;9146;48.074;11.968;2023-03-19T00:19:00;6.60;99.90
18043;DHT22;9146;48.074;11.968;2023-03-19T00:21:28;6.50;99.90
18043;DHT22;9146;48.074;11.968;2023-03-19T00:23:55;6.40;99.90
18043;DHT22;9146;48.074;11.968;2023-03-19T00:26:25;6.40;99.90
18043;DHT22;9146;48.074;11.968;2023-03-19T00:28:52;6.30;99.90
18043;DHT22;9146;48.074;11.968;2023-03-19T00:31:19;6.20;99.90
18043;DHT22;9146;48.074;11.968;2023-03-19T00:33:46;6.20;99.90
18043;DHT22;9146;48.074;11.968;2023-03-19T00:36:15;6.20;99.90
18043;DHT22;9146;48.074;11.968;2023-03-19T00:38:42;6.20;99.90
18043;DHT22;9146;48.074;11.968;2023-03-19T00:41:09;6.20;99.90
18043;DHT22;9146;48.074;11.968;2023-03-19T00:43:37;6.10;99.90
18043;DHT22;9146;48.074;11.968;2023-03-19T00:46:04;6.10;99.90
18043;DHT22;9146;48.074;11.968;2023-03-19T00:48:31;6.10;99.90
18043;DHT22;9146;48.074;11.968;2023-03-19T00:51:01;6.00;99.90
18043;DHT22;9146;48.074;11.968;2023-03-19T00:53:30;6.00;99.90
18043;DHT22;9146;48.074;11.968;2023-03-19T00:55:57;5.90;99.90
18043;DHT22;9146;48.074;11.968;2023-03-19T00:58:24;5.80;99.90
18043;DHT22;9146;48.074;11.968;2023-03-19T01:00:51;5.70;99.90
18043;DHT22;9146;48.074;11.968;2023-03-19T01:03:19;5.60;99.90
18043;DHT22;9146;48.074;11.968;2023-03-19T01:05:47;5.60;99.90
18043;DHT22;9146;48.074;11.968;2023-03-19T01:08:14;5.60;99.90
18043;DHT22;9146;48.074;11.968;2023-03-19T01:10:43;5.70;99.90
18043;DHT22;9146;48.074;11.968;2023-03-19T01:13:10;5.70;99.90
18043;DHT22;9146;48.074;11.968;2023-03-19T01:15:38;5.70;99.90
18043;DHT22;9146;48.074;11.968;2023-03-19T01:18:06;5.70;99.90
18043;DHT22;9146;48.074;11.968;2023-03-19T01:20:33;5.60;99.90
18043;DHT22;9146;48.074;11.968;2023-03-19T01:23:02;5.60;99.90
18043;DHT22;9146;48.074;11.968;2023-03-19T01:25:30;5.50;99.90
18043;DHT22;9146;48.074;11.968;2023-03-19T01:27:58;5.50;99.90
18043;DHT22;9146;48.074;11.968;2023-03-19T01:30:25;5.40;99.90
18043;DHT22;9146;48.074;11.968;2023-03-19T01:32:52;5.40;99.90
18043;DHT22;9146;48.074;11.968;2023-03-19T01:35:19;5.30;99.90
18043;DHT22;9146;48.074;11.968;2023-03-19T01:37:46;5.20;99.90
18043;DHT22;9146;48.074;11.968;2023-03-19T01:40:14;5.10;99.90
18043;DHT22;9146;48.074;11.968;2023-03-19T01:42:51;5.10;99.90
18043;DHT22;9146;48.074;11.968;2023-03-19T01:45:44;5.00;99.90
18043;DHT22;9146;48.074;11.968;2023-03-19T01:48:18;5.00;99.90
18043;DHT22;9146;48.074;11.968;2023-03-19T01:50:47;5.00;99.90
18043;DHT22;9146;48.074;11.968;2023-03-19T01:53:20;5.00;99.90
18043;DHT22;9146;48.074;11.968;2023-03-19T01:55:49;5.00;99.90
18043;DHT22;9146;48.074;11.968;2023-03-19T01:58:16;5.00;99.90
18043;DHT22;9146;48.074;11.968;2023-03-19T02:00:45;5.00;99.90
18043;DHT22;9146;48.074;11.968;2023-03-19T02:03:12;5.00;99.90
18043;DHT22;9146;48.074;11.968;2023-03-19T02:05:40;5.00;99.90
18043;DHT22;9146;48.074;11.968;2023-03-19T02:08:13;4.90;99.90
18043;DHT22;9146;48.074;11.968;2023-03-19T02:10:41;4.90;99.90
18043;DHT22;9146;48.074;11.968;2023-03-19T02:13:08;4.80;99.90
18043;DHT22;9146;48.074;11.968;2023-03-19T02:15:36;4.80;99.90
18043;DHT22;9146;48.074;11.968;2023-03-19T02:18:06;4.90;99.90
18043;DHT22;9146;48.074;11.968;2023-03-19T02:20:36;4.90;99.90
18043;DHT22;9146;48.074;11.968;2023-03-19T02:23:13;4.80;99.90
18043;DHT22;9146;48.074;11.968;2023-03-19T02:25:54;4.80;99.90
18043;DHT22;9146;48.074;11.968;2023-03-19T02:28:22;4.70;99.90
18043;DHT22;9146;48.074;11.968;2023-03-19T02:30:51;4.70;99.90
18043;DHT22;9146;48.074;11.968;2023-03-19T02:33:20;4.70;99.90
18043;DHT22;9146;48.074;11.968;2023-03-19T02:35:49;4.80;99.90
18043;DHT22;9146;48.074;11.968;2023-03-19T02:38:17;4.80;99.90
18043;DHT22;9146;48.074;11.968;2023-03-19T02:40:50;4.80;99.90
18043;DHT22;9146;48.074;11.968;2023-03-19T02:43:20;4.80;99.90
18043;DHT22;9146;48.074;11.968;2023-03-19T02:45:47;4.90;99.90
18043;DHT22;9146;48.074;11.968;2023-03-19T02:48:13;4.90;99.90
18043;DHT22;9146;48.074;11.968;2023-03-19T02:50:40;4.90;99.90
18043;DHT22;9146;48.074;11.968;2023-03-19T02:53:07;4.90;99.90
18043;DHT22;9146;48.074;11.968;2023-03-19T02:55:34;4.80;99.90
18043;DHT22;9146;48.074;11.968;2023-03-19T02:58:03;4.80;99.90
18043;DHT22;9146;48.074;11.968;2023-03-19T03:00:30;4.70;99.90
18043;DHT22;9146;48.074;11.968;2023-03-19T03:02:57;4.70;99.90
18043;DHT22;9146;48.074;11.968;2023-03-19T03:05:24;4.60;99.90
18043;DHT22;9146;48.074;11.968;2023-03-19T03:07:51;4.60;99.90
18043;DHT22;9146;48.074;11.968;2023-03-19T03:10:18;4.60;99.90
18043;DHT22;9146;48.074;11.968;2023-03-19T03:12:45;4.70;99.90
18043;DHT22;9146;48.074;11.968;2023-03-19T03:15:14;4.90;99.90
18043;DHT22;9146;48.074;11.968;2023-03-19T03:17:42;5.10;99.90
18043;DHT22;9146;48.074;11.968;2023-03-19T03:20:12;5.30;99.90
18043;DHT22;9146;48.074;11.968;2023-03-19T03:22:40;5.50;99.90
18043;DHT22;9146;48.074;11.968;2023-03-19T03:25:08;5.60;99.90
18043;DHT22;9146;48.074;11.968;2023-03-19T03:27:36;5.70;99.90
18043;DHT22;9146;48.074;11.968;2023-03-19T03:30:04;5.80;99.90
18043;DHT22;9146;48.074;11.968;2023-03-19T03:32:34;5.90;99.90
18043;DHT22;9146;48.074;11.968;2023-03-19T03:35:01;5.90;99.90
18043;DHT22;9146;48.074;11.968;2023-03-19T03:37:29;6.00;99.90
18043;DHT22;9146;48.074;11.968;2023-03-19T03:39:56;6.00;99.90
18043;DHT22;9146;48.074;11.968;2023-03-19T03:42:23;6.00;99.90
18043;DHT22;9146;48.074;11.968;2023-03-19T03:44:50;6.00;99.90
18043;DHT22;9146;48.074;11.968;2023-03-19T03:47:23;5.90;99.90
18043;DHT22;9146;48.074;11.968;2023-03-19T03:49:51;5.90;99.90
18043;DHT22;9146;48.074;11.968;2023-03-19T03:52:18;5.90;99.90
18043;DHT22;9146;48.074;11.968;2023-03-19T03:54:45;5.90;99.90
18043;DHT22;9146;48.074;11.968;2023-03-19T03:57:12;5.90;99.90
18043;DHT22;9146;48.074;11.968;2023-03-19T03:59:39;5.80;99.90
18043;DHT22;9146;48.074;11.968;2023-03-19T04:02:06;5.70;99.90
18043;DHT22;9146;48.074;11.968;2023-03-19T04:04:33;5.60;99.90
18043;DHT22;9146;48.074;11.968;2023-03-19T04:07:01;5.60;99.90
18043;DHT22;9146;48.074;11.968;2023-03-19T04:09:28;5.50;99.90
18043;DHT22;9146;48.074;11.968;2023-03-19T04:11:55;5.50;99.90
18043;DHT22;9146;48.074;11.968;2023-03-19T04:14:22;5.50;99.90
18043;DHT22;9146;48.074;11.968;2023-03-19T04:16:49;5.40;99.90
18043;DHT22;9146;48.074;11.968;2023-03-19T04:19:16;5.50;99.90
18043;DHT22;9146;48.074;11.968;2023-03-19T04:21:43;5.50;99.90
18043;DHT22;9146;48.074;11.968;2023-03-19T04:24:12;5.50;99.90
18043;DHT22;9146;48.074;11.968;2023-03-19T04:26:39;5.60;99.90
18043;DHT22;9146;48.074;11.968;2023-03-19T04:29:06;5.60;99.90
18043;DHT22;9146;48.074;11.968;2023-03-19T04:31:34;5.70;99.90
18043;DHT22;9146;48.074;11.968;2023-03-19T04:34:01;5.70;99.90
18043;DHT22;9146;48.074;11.968;2023-03-19T04:36:29;5.70;99.90
18043;DHT22;9146;48.074;11.968;2023-03-19T04:38:56;5.70;99.90
18043;DHT22;9146;48.074;11.968;2023-03-19T04:41:24;5.70;99.90
18043;DHT22;9146;48.074;11.968;2023-03-19T04:43:51;5.80;99.90
18043;DHT22;9146;48.074;11.968;2023-03-19T04:46:18;5.80;99.90
18043;DHT22;9146;48.074;11.968;2023-03-19T04:48:45;5.80;99.90
18043;DHT22;9146;48.074;11.968;2023-03-19T04:51:12;5.70;99.90
18043;DHT22;9146;48.074;11.968;2023-03-19T04:53:39;5.70;99.90
18043;DHT22;9146;48.074;11.968;2023-03-19T04:56:07;5.70;99.90
18043;DHT22;9146;48.074;11.968;2023-03-19T04:58:35;5.70;99.90
18043;DHT22;9146;48.074;11.968;2023-03-19T05:01:02;5.70;99.90
18043;DHT22;9146;48.074;11.968;2023-03-19T05:03:29;5.70;99.90
18043;DHT22;9146;48.074;11.968;2023-03-19T05:05:56;5.70;99.90
18043;DHT22;9146;48.074;11.968;2023-03-19T05:08:23;5.70;99.90
18043;DHT22;9146;48.074;11.968;2023-03-19T05:10:50;5.70;99.90
18043;DHT22;9146;48.074;11.968;2023-03-19T05:13:18;5.70;99.90
18043;DHT22;9146;48.074;11.968;2023-03-19T05:15:46;5.60;99.90
18043;DHT22;9146;48.074;11.968;2023-03-19T05:18:13;5.60;99.90
18043;DHT22;9146;48.074;11.968;2023-03-19T05:20:41;5.60;99.90
18043;DHT22;9146;48.074;11.968;2023-03-19T05:23:08;5.60;99.90
18043;DHT22;9146;48.074;11.968;2023-03-19T05:25:35;5.60;99.90
18043;DHT22;9146;48.074;11.968;2023-03-19T05:28:02;5.70;99.90
18043;DHT22;9146;48.074;11.968;2023-03-19T05:30:29;5.70;99.90
18043;DHT22;9146;48.074;11.968;2023-03-19T05:32:59;5.70;99.90
18043;DHT22;9146;48.074;11.968;2023-03-19T05:35:27;5.70;99.90
18043;DHT22;9146;48.074;11.968;2023-03-19T05:37:55;5.90;99.90
18043;DHT22;9146;48.074;11.968;2023-03-19T05:40:23;6.00;99.90
18043;DHT22;9146;48.074;11.968;2023-03-19T05:42:50;6.10;99.90
18043;DHT22;9146;48.074;11.968;2023-03-19T05:45:17;6.30;99.90
18043;DHT22;9146;48.074;11.968;2023-03-19T05:47:46;6.50;99.90
18043;DHT22;9146;48.074;11.968;2023-03-19T05:50:16;6.70;99.90
18043;DHT22;9146;48.074;11.968;2023-03-19T05:52:43;6.80;99.90
18043;DHT22;9146;48.074;11.968;2023-03-19T05:55:10;6.90;99.90
18043;DHT22;9146;48.074;11.968;2023-03-19T05:57:37;7.00;99.90
18043;DHT22;9146;48.074;11.968;2023-03-19T06:00:05;7.00;99.90
18043;DHT22;9146;48.074;11.968;2023-03-19T06:02:32;7.00;99.90
18043;DHT22;9146;48.074;11.968;2023-03-19T06:04:59;6.90;99.90
18043;DHT22;9146;48.074;11.968;2023-03-19T06:07:28;7.00;99.90
18043;DHT22;9146;48.074;11.968;2023-03-19T06:09:55;7.00;99.90
18043;DHT22;9146;48.074;11.968;2023-03-19T06:12:22;7.00;99.90
18043;DHT22;9146;48.074;11.968;2023-03-19T06:14:49;7.10;99.90
18043;DHT22;9146;48.074;11.968;2023-03-19T06:17:16;7.30;99.90
18043;DHT22;9146;48.074;11.968;2023-03-19T06:19:43;7.40;99.90
18043;DHT22;9146;48.074;11.968;2023-03-19T06:22:11;7.60;99.90
18043;DHT22;9146;48.074;11.968;2023-03-19T06:24:39;7.80;99.90
18043;DHT22;9146;48.074;11.968;2023-03-19T06:27:06;8.00;99.90
18043;DHT22;9146;48.074;11.968;2023-03-19T06:29:34;8.20;99.90
18043;DHT22;9146;48.074;11.968;2023-03-19T06:32:01;8.30;99.90
18043;DHT22;9146;48.074;11.968;2023-03-19T06:34:28;8.50;99.90
18043;DHT22;9146;48.074;11.968;2023-03-19T06:36:55;8.60;99.90
18043;DHT22;9146;48.074;11.968;2023-03-19T06:39:22;8.80;99.90
18043;DHT22;9146;48.074;11.968;2023-03-19T06:41:50;8.90;99.90
18043;DHT22;9146;48.074;11.968;2023-03-19T06:44:17;9.00;99.90
18043;DHT22;9146;48.074;11.968;2023-03-19T06:46:44;9.10;99.90
18043;DHT22;9146;48.074;11.968;2023-03-19T06:49:11;9.10;99.90
18043;DHT22;9146;48.074;11.968;2023-03-19T06:51:38;9.10;99.90
18043;DHT22;9146;48.074;11.968;2023-03-19T06:54:05;9.10;99.90
18043;DHT22;9146;48.074;11.968;2023-03-19T06:56:32;9.10;99.90
18043;DHT22;9146;48.074;11.968;2023-03-19T06:59:00;9.10;99.90
18043;DHT22;9146;48.074;11.968;2023-03-19T07:01:27;9.10;99.90
18043;DHT22;9146;48.074;11.968;2023-03-19T07:03:54;9.10;99.90
18043;DHT22;9146;48.074;11.968;2023-03-19T07:06:21;9.10;99.90
18043;DHT22;9146;48.074;11.968;2023-03-19T07:08:48;9.10;99.90
18043;DHT22;9146;48.074;11.968;2023-03-19T07:11:15;9.00;99.90
18043;DHT22;9146;48.074;11.968;2023-03-19T07:13:42;9.00;99.90
18043;DHT22;9146;48.074;11.968;2023-03-19T07:16:10;9.00;99.90
18043;DHT22;9146;48.074;11.968;2023-03-19T07:18:37;8.90;99.90
18043;DHT22;9146;48.074;11.968;2023-03-19T07:21:04;8.90;99.90
18043;DHT22;9146;48.074;11.968;2023-03-19T07:23:31;8.90;99.90
18043;DHT22;9146;48.074;11.968;2023-03-19T07:25:58;8.90;99.90
18043;DHT22;9146;48.074;11.968;2023-03-19T07:28:25;9.00;99.90
18043;DHT22;9146;48.074;11.968;2023-03-19T07:30:52;9.00;99.90
18043;DHT22;9146;48.074;11.968;2023-03-19T07:33:20;9.10;99.90
18043;DHT22;9146;48.074;11.968;2023-03-19T07:35:47;9.20;99.90
18043;DHT22;9146;48.074;11.968;2023-03-19T07:38:15;9.40;99.90
18043;DHT22;9146;48.074;11.968;2023-03-19T07:40:42;9.40;99.90
18043;DHT22;9146;48.074;11.968;2023-03-19T07:43:09;9.50;99.90
18043;DHT22;9146;48.074;11.968;2023-03-19T07:45:36;9.60;99.90
18043;DHT22;9146;48.074;11.968;2023-03-19T07:48:03;9.60;99.90
18043;DHT22;9146;48.074;11.968;2023-03-19T07:50:32;9.70;99.90
18043;DHT22;9146;48.074;11.968;2023-03-19T07:52:59;9.70;99.90
18043;DHT22;9146;48.074;11.968;2023-03-19T07:55:28;9.80;99.90
18043;DHT22;9146;48.074;11.968;2023-03-19T07:57:55;9.80;99.90
18043;DHT22;9146;48.074;11.968;2023-03-19T08:00:22;9.80;99.90
18043;DHT22;9146;48.074;11.968;2023-03-19T08:02:49;9.80;99.90
18043;DHT22;9146;48.074;11.968;2023-03-19T08:05:16;9.80;99.90
18043;DHT22;9146;48.074;11.968;2023-03-19T08:07:44;9.90;99.90
18043;DHT22;9146;48.074;11.968;2023-03-19T08:10:11;10.00;99.90
18043;DHT22;9146;48.074;11.968;2023-03-19T08:12:38;10.10;99.90
18043;DHT22;9146;48.074;11.968;2023-03-19T08:15:07;10.20;99.90
18043;DHT22;9146;48.074;11.968;2023-03-19T08:17:35;10.30;99.90
18043;DHT22;9146;48.074;11.968;2023-03-19T08:20:04;10.30;99.90
18043;DHT22;9146;48.074;11.968;2023-03-19T08:22:33;10.40;99.90
18043;DHT22;9146;48.074;11.968;2023-03-19T08:25:01;10.30;99.90
18043;DHT22;9146;48.074;11.968;2023-03-19T08:27:29;10.40;99.90
18043;DHT22;9146;48.074;11.968;2023-03-19T08:29:56;10.40;99.90
18043;DHT22;9146;48.074;11.968;2023-03-19T08:32:23;10.50;99.90
18043;DHT22;9146;48.074;11.968;2023-03-19T08:34:50;10.50;99.90
18043;DHT22;9146;48.074;11.968;2023-03-19T08:37:17;10.50;99.90
18043;DHT22;9146;48.074;11.968;2023-03-19T08:39:44;10.60;99.90
18043;DHT22;9146;48.074;11.968;2023-03-19T08:42:13;10.60;99.90
18043;DHT22;9146;48.074;11.968;2023-03-19T08:44:40;10.80;99.90
18043;DHT22;9146;48.074;11.968;2023-03-19T08:47:07;11.00;99.90
18043;DHT22;9146;48.074;11.968;2023-03-19T08:49:34;11.20;99.90
18043;DHT22;9146;48.074;11.968;2023-03-19T08:52:01;11.30;99.90
18043;DHT22;9146;48.074;11.968;2023-03-19T08:54:28;11.50;99.90
18043;DHT22;9146;48.074;11.968;2023-03-19T08:56:55;11.60;99.90
18043;DHT22;9146;48.074;11.968;2023-03-19T08:59:23;11.60;99.90
18043;DHT22;9146;48.074;11.968;2023-03-19T09:01:51;11.60;99.90
18043;DHT22;9146;48.074;11.968;2023-03-19T09:04:18;11.60;99.90
18043;DHT22;9146;48.074;11.968;2023-03-19T09:06:45;11.50;99.90
18043;DHT22;9146;48.074;11.968;2023-03-19T09:09:16;11.50;99.90
18043;DHT22;9146;48.074;11.968;2023-03-19T09:11:43;11.40;99.90
18043;DHT22;9146;48.074;11.968;2023-03-19T09:14:10;11.50;99.90
18043;DHT22;9146;48.074;11.968;2023-03-19T09:16:39;11.60;99.90
18043;DHT22;9146;48.074;11.968;2023-03-19T09:19:06;11.70;99.90
18043;DHT22;9146;48.074;11.968;2023-03-19T09:21:34;11.90;99.90
18043;DHT22;9146;48.074;11.968;2023-03-19T09:24:01;12.10;99.90
18043;DHT22;9146;48.074;11.968;2023-03-19T09:26:28;12.20;99.90
18043;DHT22;9146;48.074;11.968;2023-03-19T09:28:55;12.30;99.90
18043;DHT22;9146;48.074;11.968;2023-03-19T09:31:23;12.50;99.90
18043;DHT22;9146;48.074;11.968;2023-03-19T09:33:51;12.70;99.90
18043;DHT22;9146;48.074;11.968;2023-03-19T09:36:18;12.80;99.90
18043;DHT22;9146;48.074;11.968;2023-03-19T09:38:45;12.90;99.90
18043;DHT22;9146;48.074;11.968;2023-03-19T09:41:17;13.00;99.90
18043;DHT22;9146;48.074;11.968;2023-03-19T09:43:59;13.10;99.90
18043;DHT22;9146;48.074;11.968;2023-03-19T09:46:32;13.20;99.90
18043;DHT22;9146;48.074;11.968;2023-03-19T09:49:06;13.30;99.90
18043;DHT22;9146;48.074;11.968;2023-03-19T09:51:42;13.50;99.90
18043;DHT22;9146;48.074;11.968;2023-03-19T09:54:19;13.60;99.90
18043;DHT22;9146;48.074;11.968;2023-03-19T09:56:48;13.60;99.90
18043;DHT22;9146;48.074;11.968;2023-03-19T09:59:15;13.50;99.90
18043;DHT22;9146;48.074;11.968;2023-03-19T10:01:47;13.50;99.90
18043;DHT22;9146;48.074;11.968;2023-03-19T10:04:36;13.70;99.90
18043;DHT22;9146;48.074;11.968;2023-03-19T10:07:08;13.70;99.90
18043;DHT22;9146;48.074;11.968;2023-03-19T10:09:48;13.60;99.90
18043;DHT22;9146;48.074;11.968;2023-03-19T10:12:27;13.50;99.90
18043;DHT22;9146;48.074;11.968;2023-03-19T10:15:09;13.60;99.90
18043;DHT22;9146;48.074;11.968;2023-03-19T10:17:41;13.60;99.90
18043;DHT22;9146;48.074;11.968;2023-03-19T10:20:16;13.50;99.90
18043;DHT22;9146;48.074;11.968;2023-03-19T10:22:47;13.40;99.90
18043;DHT22;9146;48.074;11.968;2023-03-19T10:25:19;13.30;99.90
18043;DHT22;9146;48.074;11.968;2023-03-19T10:27:53;13.30;99.90
18043;DHT22;9146;48.074;11.968;2023-03-19T10:30:21;13.40;99.90
18043;DHT22;9146;48.074;11.968;2023-03-19T10:32:52;13.30;99.90
18043;DHT22;9146;48.074;11.968;2023-03-19T10:35:23;13.20;99.90
18043;DHT22;9146;48.074;11.968;2023-03-19T10:37:51;13.10;99.90
18043;DHT22;9146;48.074;11.968;2023-03-19T10:40:23;13.20;99.90
18043;DHT22;9146;48.074;11.968;2023-03-19T10:43:03;13.20;99.90
18043;DHT22;9146;48.074;11.968;2023-03-19T10:45:33;13.20;99.90
18043;DHT22;9146;48.074;11.968;2023-03-19T10:48:01;13.20;99.90
18043;DHT22;9146;48.074;11.968;2023-03-19T10:50:33;13.30;99.90
18043;DHT22;9146;48.074;11.968;2023-03-19T10:53:05;13.30;99.90
18043;DHT22;9146;48.074;11.968;2023-03-19T10:55:32;13.30;99.90
18043;DHT22;9146;48.074;11.968;2023-03-19T10:58:05;13.30;99.90
18043;DHT22;9146;48.074;11.968;2023-03-19T11:00:33;13.30;99.90
18043;DHT22;9146;48.074;11.968;2023-03-19T11:03:01;13.30;99.90
18043;DHT22;9146;48.074;11.968;2023-03-19T11:05:32;13.40;99.90
18043;DHT22;9146;48.074;11.968;2023-03-19T11:08:01;13.50;99.90
18043;DHT22;9146;48.074;11.968;2023-03-19T11:10:30;13.70;99.90
18043;DHT22;9146;48.074;11.968;2023-03-19T11:12:59;13.90;99.90
18043;DHT22;9146;48.074;11.968;2023-03-19T11:15:33;14.10;99.90
18043;DHT22;9146;48.074;11.968;2023-03-19T11:18:06;14.30;99.90
18043;DHT22;9146;48.074;11.968;2023-03-19T11:20:37;14.40;99.90
18043;DHT22;9146;48.074;11.968;2023-03-19T11:23:10;14.60;99.90
18043;DHT22;9146;48.074;11.968;2023-03-19T11:25:39;14.70;99.90
18043;DHT22;9146;48.074;11.968;2023-03-19T11:28:08;14.80;99.90
18043;DHT22;9146;48.074;11.968;2023-03-19T11:30:42;14.80;99.90
18043;DHT22;9146;48.074;11.968;2023-03-19T11:33:24;15.00;99.90
18043;DHT22;9146;48.074;11.968;2023-03-19T11:36:06;14.90;99.90
18043;DHT22;9146;48.074;11.968;2023-03-19T11:38:43;15.00;99.90
18043;DHT22;9146;48.074;11.968;2023-03-19T11:41:22;15.10;99.90
18043;DHT22;9146;48.074;11.968;2023-03-19T11:43:58;15.30;99.90
18043;DHT22;9146;48.074;11.968;2023-03-19T11:46:35;15.40;99.90
18043;DHT22;9146;48.074;11.968;2023-03-19T11:49:11;15.40;99.90
18043;DHT22;9146;48.074;11.968;2023-03-19T11:51:47;15.30;99.90
18043;DHT22;9146;48.074;11.968;2023-03-19T11:54:22;15.30;99.90
18043;DHT22;9146;48.074;11.968;2023-03-19T11:56:55;15.20;99.90
18043;DHT22;9146;48.074;11.968;2023-03-19T11:59:41;15.20;99.90
18043;DHT22;9146;48.074;11.968;2023-03-19T12:02:40;15.20;99.90
18043;DHT22;9146;48.074;11.968;2023-03-19T12:05:22;15.40;99.90
18043;DHT22;9146;48.074;11.968;2023-03-19T12:08:09;15.50;99.90
18043;DHT22;9146;48.074;11.968;2023-03-19T12:10:57;15.50;99.90
18043;DHT22;9146;48.074;11.968;2023-03-19T12:13:34;15.40;99.90
18043;DHT22;9146;48.074;11.968;2023-03-19T12:16:10;15.30;99.90
18043;DHT22;9146;48.074;11.968;2023-03-19T12:19:03;15.40;99.90
18043;DHT22;9146;48.074;11.968;2023-03-19T12:21:45;15.30;99.90
18043;DHT22;9146;48.074;11.968;2023-03-19T12:24:25;15.00;99.90
18043;DHT22;9146;48.074;11.968;2023-03-19T12:27:00;15.00;99.90
18043;DHT22;9146;48.074;11.968;2023-03-19T12:29:37;15.00;99.90
18043;DHT22;9146;48.074;11.968;2023-03-19T12:32:15;14.90;99.90
18043;DHT22;9146;48.074;11.968;2023-03-19T12:34:48;14.90;99.90
18043;DHT22;9146;48.074;11.968;2023-03-19T12:37:19;15.00;99.90
18043;DHT22;9146;48.074;11.968;2023-03-19T12:40:03;15.00;99.90
18043;DHT22;9146;48.074;11.968;2023-03-19T12:42:36;15.20;99.90
18043;DHT22;9146;48.074;11.968;2023-03-19T12:45:16;15.30;99.90
18043;DHT22;9146;48.074;11.968;2023-03-19T12:47:45;15.40;99.90
18043;DHT22;9146;48.074;11.968;2023-03-19T12:50:16;15.40;99.90
18043;DHT22;9146;48.074;11.968;2023-03-19T12:52:48;15.30;99.90
18043;DHT22;9146;48.074;11.968;2023-03-19T12:55:19;15.10;99.90
18043;DHT22;9146;48.074;11.968;2023-03-19T12:57:48;14.80;99.90
18043;DHT22;9146;48.074;11.968;2023-03-19T13:00:21;14.80;99.90
18043;DHT22;9146;48.074;11.968;2023-03-19T13:02:56;14.80;99.90
18043;DHT22;9146;48.074;11.968;2023-03-19T13:05:31;15.10;99.90
18043;DHT22;9146;48.074;11.968;2023-03-19T13:08:03;15.20;99.90
18043;DHT22;9146;48.074;11.968;2023-03-19T13:10:34;15.30;99.90
18043;DHT22;9146;48.074;11.968;2023-03-19T13:13:11;15.30;99.90
18043;DHT22;9146;48.074;11.968;2023-03-19T13:15:41;15.30;99.90
18043;DHT22;9146;48.074;11.968;2023-03-19T13:18:19;15.20;99.90
18043;DHT22;9146;48.074;11.968;2023-03-19T13:21:01;15.30;99.90
18043;DHT22;9146;48.074;11.968;2023-03-19T13:23:35;15.30;99.90
18043;DHT22;9146;48.074;11.968;2023-03-19T13:26:08;15.40;99.90
18043;DHT22;9146;48.074;11.968;2023-03-19T13:28:37;15.40;99.90
18043;DHT22;9146;48.074;11.968;2023-03-19T13:31:19;15.30;99.90
18043;DHT22;9146;48.074;11.968;2023-03-19T13:33:51;15.30;99.90
18043;DHT22;9146;48.074;11.968;2023-03-19T13:36:20;15.20;99.90
18043;DHT22;9146;48.074;11.968;2023-03-19T13:38:48;15.20;99.90
18043;DHT22;9146;48.074;11.968;2023-03-19T13:41:56;15.20;99.90
18043;DHT22;9146;48.074;11.968;2023-03-19T13:44:31;15.30;99.90
18043;DHT22;9146;48.074;11.968;2023-03-19T13:47:00;15.50;99.90
18043;DHT22;9146;48.074;11.968;2023-03-19T13:49:30;15.70;99.90
18043;DHT22;9146;48.074;11.968;2023-03-19T13:54:45;15.80;99.90
18043;DHT22;9146;48.074;11.968;2023-03-19T13:57:32;15.80;99.90
18043;DHT22;9146;48.074;11.968;2023-03-19T14:03:19;15.70;99.90
18043;DHT22;9146;48.074;11.968;2023-03-19T14:05:48;15.60;99.90
18043;DHT22;9146;48.074;11.968;2023-03-19T14:08:19;15.60;99.90
18043;DHT22;9146;48.074;11.968;2023-03-19T14:10:49;15.70;99.90
18043;DHT22;9146;48.074;11.968;2023-03-19T14:13:24;15.80;99.90
18043;DHT22;9146;48.074;11.968;2023-03-19T14:15:53;15.90;99.90
18043;DHT22;9146;48.074;11.968;2023-03-19T14:18:28;15.90;99.90
18043;DHT22;9146;48.074;11.968;2023-03-19T14:20:57;15.90;99.90
18043;DHT22;9146;48.074;11.968;2023-03-19T14:23:27;15.90;99.90
18043;DHT22;9146;48.074;11.968;2023-03-19T14:26:03;16.00;99.90
18043;DHT22;9146;48.074;11.968;2023-03-19T14:28:40;15.90;99.90
18043;DHT22;9146;48.074;11.968;2023-03-19T14:31:21;15.70;99.90
18043;DHT22;9146;48.074;11.968;2023-03-19T14:33:52;15.70;99.90
18043;DHT22;9146;48.074;11.968;2023-03-19T14:36:21;15.50;99.90
18043;DHT22;9146;48.074;11.968;2023-03-19T14:38:50;15.50;99.90
18043;DHT22;9146;48.074;11.968;2023-03-19T14:41:21;15.40;99.90
18043;DHT22;9146;48.074;11.968;2023-03-19T14:44:19;15.40;99.90
18043;DHT22;9146;48.074;11.968;2023-03-19T14:47:09;15.20;99.90
18043;DHT22;9146;48.074;11.968;2023-03-19T14:50:02;15.20;99.90
18043;DHT22;9146;48.074;11.968;2023-03-19T14:52:34;15.20;99.90
18043;DHT22;9146;48.074;11.968;2023-03-19T14:55:09;15.20;99.90
18043;DHT22;9146;48.074;11.968;2023-03-19T14:57:36;15.20;99.90
18043;DHT22;9146;48.074;11.968;2023-03-19T15:00:12;15.20;99.90
18043;DHT22;9146;48.074;11.968;2023-03-19T15:02:43;15.20;99.90
18043;DHT22;9146;48.074;11.968;2023-03-19T15:05:14;15.20;99.90
18043;DHT22;9146;48.074;11.968;2023-03-19T15:07:44;15.20;99.90
18043;DHT22;9146;48.074;11.968;2023-03-19T15:10:15;15.10;99.90
18043;DHT22;9146;48.074;11.968;2023-03-19T15:12:54;15.00;99.90
18043;DHT22;9146;48.074;11.968;2023-03-19T15:15:31;15.00;99.90
18043;DHT22;9146;48.074;11.968;2023-03-19T15:18:02;14.90;99.90
18043;DHT22;9146;48.074;11.968;2023-03-19T15:20:34;14.80;99.90
18043;DHT22;9146;48.074;11.968;2023-03-19T15:23:05;14.80;99.90
18043;DHT22;9146;48.074;11.968;2023-03-19T15:25:32;14.60;99.90
18043;DHT22;9146;48.074;11.968;2023-03-19T15:28:07;14.60;99.90
18043;DHT22;9146;48.074;11.968;2023-03-19T15:30:36;14.70;99.90
18043;DHT22;9146;48.074;11.968;2023-03-19T15:33:03;14.60;99.90
18043;DHT22;9146;48.074;11.968;2023-03-19T15:35:33;14.70;99.90
18043;DHT22;9146;48.074;11.968;2023-03-19T15:38:04;14.70;99.90
18043;DHT22;9146;48.074;11.968;2023-03-19T15:40:34;14.70;99.90
18043;DHT22;9146;48.074;11.968;2023-03-19T15:43:02;14.70;99.90
18043;DHT22;9146;48.074;11.968;2023-03-19T15:45:30;14.70;99.90
18043;DHT22;9146;48.074;11.968;2023-03-19T15:48:03;14.70;99.90
18043;DHT22;9146;48.074;11.968;2023-03-19T15:50:35;14.70;99.90
18043;DHT22;9146;48.074;11.968;2023-03-19T15:53:05;14.70;99.90
18043;DHT22;9146;48.074;11.968;2023-03-19T15:55:35;14.60;99.90
18043;DHT22;9146;48.074;11.968;2023-03-19T15:58:05;14.60;99.90
18043;DHT22;9146;48.074;11.968;2023-03-19T16:00:37;14.60;99.90
18043;DHT22;9146;48.074;11.968;2023-03-19T16:03:07;14.60;99.90